CheckWX is a tool to help pilots better visualize weather data.  It is not intended as a substitute for an official pre-flight weather briefing.

09:09:57 UTC

EGGD METAR
Bristol International Airport
Bristol, United Kingdom
Current

20 mins ago

EGGD 220850Z AUTO 13004KT 070V180 9999 NCD 16/03 Q1021
Observed
May-22 @ 08:50 UTC
Wind
  • 130° at 4 KTS
Visibility
10,000+ meters
Flight Rules
VFR
Cloud Levels
  • Clear skies
Temperature
16°C / 61°F
Dewpoint
C / 37°F
Humidity
42%
Altimeter
30.15" Hg
Pressure
1020.92 hPa
Previous

50 mins ago

EGGD 220820Z AUTO 12005KT 9999 NCD 15/03 Q1021
Observed
May-22 @ 08:20 UTC
Wind
  • 120° at 5 KTS
Visibility
10,000+ meters
Flight Rules
VFR
Cloud Levels
  • Clear skies
Temperature
15°C / 59°F
Dewpoint
C / 37°F
Humidity
45%
Altimeter
30.15" Hg
Pressure
1020.92 hPa
Previous

1 hour ago

EGGD 220750Z AUTO VRB03KT 9999 NCD 15/02 Q1021
Observed
May-22 @ 07:50 UTC
Wind
  • Variable at 3 KTS
Visibility
10,000+ meters
Flight Rules
VFR
Cloud Levels
  • Clear skies
Temperature
15°C / 59°F
Dewpoint
C / 36°F
Humidity
42%
Altimeter
30.15" Hg
Pressure
1020.92 hPa